메인 페이지
METAR-TAF:

METAR-TAF

공항 :

레이캬비크, 아이슬란드

위도: 64-08N, 경도: 021-54W, 고도: 54m

현재 날씨관측

예보는 10분 전, 10:00시(UTC)에 발표되었습니다.
남서28kt
온도 6°C
습도 70%
기압 985 hPa
시정 10km 이상
고도 2100ft 상공 구름 조금
고도 2800ft 상공 구름 많음
고도 5500ft 상공 구름 많음
약한비

METAR: BIRK 201000Z 22028KT 9999 -RA FEW021 BKN028 BKN055 06/01 Q0985

시각: 10:10 (10:10 UTC)

예보

예보는 2 시간 17분 전, 07:53시(UTC)에 발표되었습니다.
예보 대상 시간: 20일 09시부터 21일 09시까지 (UTC)
남남서30kt, 순간 최대 풍속 40kt
시정 10km 이상
고도 1800ft 상공 구름 보통, 적란운.
고도 3000ft 상공 흐림
소나기
전환 중
20일 09시부터 20일 10시까지 (UTC)
남서27kt
전환 중
20일 18시부터 20일 20시까지 (UTC)
남서15kt
전환 중
20일 21시부터 20일 24시까지 (UTC)
10kt
고도 4500ft 상공 구름 보통

TAF: BIRK 200753Z 2009/2109 20030G40KT 9999 SHRA SCT018CB OVC030 TX07/2016Z TN03/2105Z BECMG 2009/2010 22027KT BECMG 2018/2020 23015KT BECMG 2021/2024 36010KT NSW SCT045

4,000개 이상의 공항 관측 자료 및 예보 (METAR 및 TAF 보고).

지도상에서 검색 가능한 기상관측소가 노란 점과 빨간 점으로 표시되어 있습니다.

기상관측소 명을 보려면 표시 위로 마우스를 이동하세요.

날씨 관측과 예보를 보려면 클릭하세요.

지도 변경 : 확대하려면 엑스 표시가 있는 녹색 버튼, 축소하려면 빼기 표시가 있는 녹색 버튼, 다음 페이지의 지도를 보려면 녹색 화살표를 클릭하세요.


METAR-TAF: